createdAt,value
2022-08-07T00:00:26.715Z,56.08
2022-08-07T00:02:57.452Z,55.96
2022-08-07T00:05:25.191Z,56.08
2022-08-07T00:08:00.351Z,56.08
2022-08-07T00:10:31.202Z,56.23
2022-08-07T00:13:02.275Z,56.50
2022-08-07T00:15:46.769Z,56.42
2022-08-07T00:18:24.635Z,56.77
2022-08-07T00:21:08.115Z,56.60
2022-08-07T00:23:52.599Z,56.52
2022-08-07T00:26:59.358Z,56.55
2022-08-07T00:29:06.752Z,56.90
2022-08-07T00:31:38.208Z,56.67
2022-08-07T00:34:09.933Z,56.96
2022-08-07T00:36:43.142Z,56.95
2022-08-07T00:39:16.723Z,57.47
2022-08-07T00:42:01.796Z,56.64
2022-08-07T00:44:31.694Z,56.08
2022-08-07T00:47:01.820Z,57.01
2022-08-07T00:50:17.130Z,57.24
2022-08-07T00:52:17.654Z,57.51
2022-08-07T00:54:53.948Z,57.07
2022-08-07T00:57:25.912Z,57.07
2022-08-07T00:59:54.491Z,57.54
2022-08-07T01:02:29.356Z,57.29
2022-08-07T01:04:59.169Z,57.65
2022-08-07T01:07:29.344Z,58.15
2022-08-07T01:10:06.897Z,57.90
2022-08-07T01:12:53.489Z,57.84
2022-08-07T01:15:36.136Z,58.10
2022-08-07T01:18:17.208Z,58.39
2022-08-07T01:20:59.358Z,58.23
2022-08-07T01:23:38.163Z,58.49
2022-08-07T01:26:13.213Z,58.70
2022-08-07T01:28:48.435Z,58.68
2022-08-07T01:31:27.915Z,58.66
2022-08-07T01:34:09.572Z,58.74
2022-08-07T01:36:41.132Z,59.02
2022-08-07T01:39:16.163Z,58.61
2022-08-07T01:42:01.656Z,59.13
2022-08-07T01:44:37.916Z,59.30
2022-08-07T01:48:18.071Z,59.25
2022-08-07T01:49:53.544Z,59.66
2022-08-07T01:52:25.706Z,59.16
2022-08-07T01:54:56.468Z,59.59
2022-08-07T01:57:30.506Z,59.39
2022-08-07T02:00:13.167Z,59.52
2022-08-07T02:03:12.059Z,59.75
2022-08-07T02:05:43.214Z,59.62
2022-08-07T02:08:23.841Z,59.35
2022-08-07T02:10:55.036Z,59.82
2022-08-07T02:13:57.944Z,59.87
2022-08-07T02:16:33.669Z,59.81
2022-08-07T02:20:07.075Z,60.15
2022-08-07T02:21:59.857Z,60.26
2022-08-07T02:24:30.506Z,60.50
2022-08-07T02:27:01.150Z,60.17
2022-08-07T02:29:30.728Z,60.42
2022-08-07T02:32:01.763Z,60.13
2022-08-07T02:34:32.617Z,60.08
2022-08-07T02:37:08.235Z,60.58
2022-08-07T02:39:43.048Z,60.17
2022-08-07T02:42:33.978Z,60.80
2022-08-07T02:45:07.588Z,60.69
2022-08-07T02:47:55.133Z,60.86
2022-08-07T02:50:26.618Z,61.12
2022-08-07T02:53:06.124Z,60.99
2022-08-07T02:56:03.891Z,60.64
2022-08-07T02:58:28.502Z,60.64
2022-08-07T03:01:04.188Z,60.79
2022-08-07T03:03:50.004Z,60.71
2022-08-07T03:06:26.065Z,60.85
2022-08-07T03:09:01.870Z,60.96
2022-08-07T03:11:32.694Z,61.08
2022-08-07T03:14:02.675Z,60.83
2022-08-07T03:16:35.140Z,60.76
2022-08-07T03:19:03.370Z,61.00
2022-08-07T03:21:33.767Z,61.15
2022-08-07T03:24:19.559Z,61.04
2022-08-07T03:26:58.252Z,61.03
2022-08-07T03:29:37.762Z,60.89
2022-08-07T03:32:13.410Z,60.67
2022-08-07T03:34:47.591Z,60.61
2022-08-07T03:37:37.328Z,60.22
2022-08-07T03:40:15.138Z,60.92
2022-08-07T03:42:44.879Z,60.54
2022-08-07T03:45:30.174Z,60.36
2022-08-07T03:48:01.728Z,59.98
2022-08-07T03:50:30.761Z,60.00
2022-08-07T03:53:00.186Z,60.44
2022-08-07T03:55:52.833Z,60.31
2022-08-07T03:59:05.399Z,59.57
2022-08-07T04:01:11.190Z,59.33
2022-08-07T04:03:49.799Z,59.44
2022-08-07T04:06:36.095Z,58.54
2022-08-07T04:09:15.148Z,58.76
2022-08-07T04:12:25.746Z,59.07
2022-08-07T04:14:39.056Z,58.30
2022-08-07T04:17:21.281Z,58.41
2022-08-07T04:19:55.259Z,58.39
2022-08-07T04:22:29.479Z,57.76
2022-08-07T04:25:02.144Z,56.22
2022-08-07T04:27:35.684Z,55.69
2022-08-07T04:30:21.277Z,56.02
2022-08-07T04:33:15.589Z,55.72
2022-08-07T04:35:51.023Z,55.22
2022-08-07T04:38:22.321Z,54.68
2022-08-07T04:40:51.480Z,54.49
2022-08-07T04:44:09.922Z,54.88
2022-08-07T04:46:36.025Z,54.12
2022-08-07T04:49:29.269Z,54.36
2022-08-07T04:52:26.506Z,54.00
2022-08-07T04:55:14.933Z,53.00
2022-08-07T04:58:38.900Z,52.69
2022-08-07T05:01:30.819Z,53.01
2022-08-07T05:04:17.081Z,52.63
2022-08-07T05:06:53.285Z,52.96
2022-08-07T05:09:45.844Z,52.84
2022-08-07T05:12:30.577Z,51.73
2022-08-07T05:15:23.066Z,51.75
2022-08-07T05:18:08.742Z,51.96
2022-08-07T05:20:46.920Z,51.38
2022-08-07T05:23:23.229Z,51.25
2022-08-07T05:26:15.569Z,51.72
2022-08-07T05:28:53.434Z,50.57
2022-08-07T05:31:34.728Z,50.00
2022-08-07T05:34:11.217Z,50.03
2022-08-07T05:36:48.829Z,49.48
2022-08-07T05:40:13.793Z,48.70
2022-08-07T05:42:34.333Z,49.50
2022-08-07T05:45:25.819Z,48.51
2022-08-07T05:48:02.562Z,49.09
2022-08-07T05:50:44.566Z,48.39
2022-08-07T05:54:12.731Z,47.80
2022-08-07T05:56:05.503Z,47.26
2022-08-07T05:58:39.165Z,47.49
2022-08-07T06:01:11.482Z,48.02
2022-08-07T06:03:57.101Z,46.22
2022-08-07T06:06:34.300Z,45.49
2022-08-07T06:09:05.621Z,46.61
2022-08-07T06:11:38.271Z,45.60
2022-08-07T06:14:11.988Z,45.15
2022-08-07T06:16:50.034Z,45.98
2022-08-07T06:19:47.979Z,44.96
2022-08-07T06:22:15.555Z,44.04
2022-08-07T06:24:56.850Z,44.32
2022-08-07T06:28:00.434Z,43.47
2022-08-07T06:30:36.195Z,43.55
2022-08-07T06:33:02.197Z,43.40
2022-08-07T06:35:45.893Z,43.29
2022-08-07T06:38:19.848Z,42.26
2022-08-07T06:40:53.277Z,43.08
2022-08-07T06:43:25.106Z,42.88
2022-08-07T06:46:12.314Z,42.14
2022-08-07T06:48:42.081Z,41.24
2022-08-07T06:51:24.569Z,42.48
2022-08-07T06:55:30.027Z,42.72
2022-08-07T06:56:52.292Z,42.38
2022-08-07T07:00:12.237Z,42.61
2022-08-07T07:02:48.086Z,42.76
2022-08-07T07:05:13.794Z,42.69
2022-08-07T07:08:07.217Z,43.35
2022-08-07T07:10:37.009Z,42.99
2022-08-07T07:13:40.654Z,43.70
2022-08-07T07:16:27.186Z,43.93
2022-08-07T07:19:04.103Z,46.65
2022-08-07T07:22:05.088Z,49.79
2022-08-07T07:24:30.460Z,52.79
2022-08-07T07:27:03.245Z,53.40
2022-08-07T07:29:56.880Z,55.17
2022-08-07T07:32:25.684Z,57.36
2022-08-07T07:34:59.633Z,55.13
2022-08-07T07:37:49.529Z,55.53
2022-08-07T07:40:19.039Z,56.54
2022-08-07T07:42:53.798Z,57.88
2022-08-07T07:46:38.022Z,55.88
2022-08-07T07:48:35.063Z,56.26
2022-08-07T07:51:08.077Z,57.52
2022-08-07T07:53:52.155Z,58.54
2022-08-07T07:56:30.409Z,60.50
2022-08-07T07:59:02.915Z,61.95
2022-08-07T08:02:01.888Z,60.21
2022-08-07T08:04:25.913Z,60.52
2022-08-07T08:06:55.294Z,60.10
2022-08-07T08:09:29.113Z,58.33
2022-08-07T08:12:02.179Z,60.71
2022-08-07T08:14:36.464Z,55.95
2022-08-07T08:17:55.676Z,52.83
2022-08-07T08:20:19.532Z,55.35
2022-08-07T08:23:14.252Z,56.43
2022-08-07T08:26:06.918Z,56.75
2022-08-07T08:28:44.787Z,56.77
2022-08-07T08:31:22.752Z,56.42
2022-08-07T08:34:06.900Z,56.18
2022-08-07T08:36:37.330Z,54.01
2022-08-07T08:39:09.135Z,54.32
2022-08-07T08:41:58.708Z,53.33
2022-08-07T08:44:44.799Z,54.73
2022-08-07T08:47:56.836Z,51.93
2022-08-07T08:50:39.322Z,51.29
2022-08-07T08:53:29.414Z,49.59
2022-08-07T08:56:06.993Z,49.66
2022-08-07T08:58:54.865Z,49.46
2022-08-07T09:01:59.734Z,48.41
2022-08-07T09:04:41.551Z,47.01
2022-08-07T09:07:46.454Z,46.55
2022-08-07T09:10:47.105Z,45.93
2022-08-07T09:13:37.557Z,44.90
2022-08-07T09:16:30.614Z,45.47
2022-08-07T09:19:51.419Z,45.09
2022-08-07T09:24:54.842Z,45.13
2022-08-07T09:25:54.265Z,46.30
2022-08-07T09:30:04.693Z,45.55
2022-08-07T09:31:53.910Z,45.92
2022-08-07T09:34:27.879Z,44.19
2022-08-07T09:37:03.638Z,43.39
2022-08-07T09:39:57.868Z,43.18
2022-08-07T09:42:51.642Z,42.17
2022-08-07T09:47:51.359Z,41.57
2022-08-07T09:48:43.914Z,42.16
2022-08-07T09:52:16.639Z,40.80
2022-08-07T09:54:41.394Z,41.75
2022-08-07T09:57:31.677Z,40.97
2022-08-07T10:00:14.483Z,42.13
2022-08-07T10:02:55.127Z,42.00
2022-08-07T10:05:29.718Z,42.79
2022-08-07T10:08:32.437Z,43.97
2022-08-07T10:12:01.635Z,41.70
2022-08-07T10:14:30.337Z,45.36
2022-08-07T10:17:23.196Z,42.58
2022-08-07T10:20:04.998Z,44.26
2022-08-07T10:22:33.557Z,44.68
2022-08-07T10:25:10.881Z,43.68
2022-08-07T10:27:59.829Z,43.06
2022-08-07T10:31:15.123Z,41.60
2022-08-07T10:34:17.960Z,41.40
2022-08-07T10:37:10.211Z,37.91
2022-08-07T10:40:18.241Z,39.48
2022-08-07T10:43:15.418Z,38.95
2022-08-07T10:45:58.198Z,37.98
2022-08-07T10:48:48.905Z,37.20
2022-08-07T10:51:57.651Z,39.32
2022-08-07T10:54:13.402Z,37.98
2022-08-07T10:57:03.357Z,38.19
2022-08-07T10:59:53.152Z,38.07
2022-08-07T11:02:33.390Z,40.15
2022-08-07T11:05:44.929Z,39.77
2022-08-07T11:08:20.906Z,39.43
2022-08-07T11:11:03.870Z,40.09
2022-08-07T11:14:42.166Z,37.65
2022-08-07T11:16:59.405Z,37.05
2022-08-07T11:19:58.215Z,37.09
2022-08-07T11:22:43.985Z,36.80
2022-08-07T11:25:25.373Z,36.08
2022-08-07T11:28:27.196Z,36.60
2022-08-07T11:31:11.481Z,35.77
2022-08-07T11:33:58.749Z,36.07
2022-08-07T11:36:49.804Z,36.29
2022-08-07T11:40:00.303Z,35.76
2022-08-07T11:43:08.285Z,38.95
2022-08-07T11:45:49.842Z,40.22
2022-08-07T11:48:29.755Z,41.17
2022-08-07T11:51:40.874Z,40.80
2022-08-07T11:54:15.700Z,40.92
2022-08-07T11:57:01.738Z,40.92
2022-08-07T12:00:12.270Z,41.60
2022-08-07T12:03:42.216Z,43.10
2022-08-07T12:06:39.774Z,44.66
2022-08-07T12:09:33.289Z,44.64
2022-08-07T12:12:12.006Z,44.73
2022-08-07T12:15:05.430Z,45.72
2022-08-07T12:18:13.612Z,45.03
2022-08-07T12:21:07.427Z,46.02
2022-08-07T12:24:05.411Z,47.21
2022-08-07T12:27:14.910Z,47.05
2022-08-07T12:29:54.598Z,46.29
2022-08-07T12:32:52.216Z,46.27
2022-08-07T12:35:21.032Z,46.33
2022-08-07T12:38:09.060Z,47.55
2022-08-07T12:40:48.927Z,47.59
2022-08-07T12:44:03.889Z,48.36
2022-08-07T12:46:37.054Z,48.68
2022-08-07T12:49:39.472Z,49.78
2022-08-07T12:52:19.235Z,49.34
2022-08-07T12:55:40.623Z,48.82
2022-08-07T12:58:12.939Z,49.43
2022-08-07T13:00:54.720Z,50.18
2022-08-07T13:04:05.455Z,50.09
2022-08-07T13:07:01.315Z,49.68
2022-08-07T13:10:19.441Z,50.48
2022-08-07T13:12:50.556Z,49.65
2022-08-07T13:15:35.984Z,50.00
2022-08-07T13:18:51.694Z,49.43
2022-08-07T13:21:50.476Z,50.30
2022-08-07T13:24:31.217Z,50.29
2022-08-07T13:27:10.604Z,49.96
2022-08-07T13:30:04.211Z,50.42
2022-08-07T13:32:55.935Z,49.59
2022-08-07T13:35:24.479Z,49.69
2022-08-07T13:38:24.732Z,50.52
2022-08-07T13:41:31.255Z,51.29
2022-08-07T13:44:02.334Z,50.07
2022-08-07T13:46:38.816Z,50.45
2022-08-07T13:50:35.435Z,50.17
2022-08-07T13:52:32.481Z,49.81
2022-08-07T13:54:57.691Z,50.70
2022-08-07T13:57:38.152Z,51.53
2022-08-07T14:00:13.437Z,51.15
2022-08-07T14:02:58.894Z,51.42
2022-08-07T14:05:37.472Z,51.18
2022-08-07T14:08:08.868Z,51.44
2022-08-07T14:10:43.527Z,51.61
2022-08-07T14:13:16.685Z,51.70
2022-08-07T14:15:56.938Z,52.18
2022-08-07T14:18:32.812Z,52.47
2022-08-07T14:22:02.097Z,52.24
2022-08-07T14:24:26.972Z,52.31
2022-08-07T14:27:01.087Z,52.51
2022-08-07T14:30:07.745Z,52.13
2022-08-07T14:32:45.709Z,52.57
2022-08-07T14:35:43.246Z,51.68
2022-08-07T14:38:26.094Z,51.08
2022-08-07T14:41:03.883Z,50.99
2022-08-07T14:43:57.782Z,51.28
2022-08-07T14:46:30.551Z,52.01
2022-08-07T14:49:55.991Z,51.74
2022-08-07T14:52:04.929Z,51.99
2022-08-07T14:54:42.042Z,52.32
2022-08-07T14:57:19.082Z,51.74
2022-08-07T15:00:06.126Z,52.09
2022-08-07T15:02:37.380Z,52.43
2022-08-07T15:05:20.596Z,52.94
2022-08-07T15:07:52.733Z,53.50
2022-08-07T15:10:26.447Z,52.30
2022-08-07T15:13:01.189Z,52.41
2022-08-07T15:15:43.168Z,51.93
2022-08-07T15:18:33.836Z,52.08
2022-08-07T15:21:44.022Z,52.75
2022-08-07T15:25:13.546Z,52.28
2022-08-07T15:26:58.731Z,52.13
2022-08-07T15:30:09.385Z,51.41
2022-08-07T15:32:39.699Z,52.43
2022-08-07T15:35:18.336Z,51.90
2022-08-07T15:38:30.071Z,51.44
2022-08-07T15:41:00.391Z,52.07
2022-08-07T15:43:55.988Z,51.96
2022-08-07T15:46:31.542Z,51.78
2022-08-07T15:54:34.668Z,52.79
2022-08-07T15:57:10.788Z,51.51
2022-08-07T15:59:59.357Z,51.86
2022-08-07T16:02:30.362Z,52.23
2022-08-07T16:05:01.862Z,51.87
2022-08-07T16:08:32.821Z,51.52
2022-08-07T16:10:23.165Z,51.38
2022-08-07T16:13:17.587Z,51.42
2022-08-07T16:16:48.784Z,51.39
2022-08-07T16:19:10.927Z,51.81
2022-08-07T16:22:03.146Z,51.75
2022-08-07T16:25:00.145Z,51.78
2022-08-07T16:27:39.923Z,52.19
2022-08-07T16:30:30.885Z,52.94
2022-08-07T16:34:02.519Z,52.66
2022-08-07T16:37:02.958Z,53.13
2022-08-07T16:39:52.537Z,53.16
2022-08-07T16:42:45.113Z,53.40
2022-08-07T16:46:21.348Z,53.32
2022-08-07T16:48:53.664Z,53.59
2022-08-07T16:51:54.517Z,54.43
2022-08-07T16:54:33.186Z,53.43
2022-08-07T16:57:15.465Z,54.13
2022-08-07T17:00:01.711Z,53.83
2022-08-07T17:02:51.414Z,54.11
2022-08-07T17:06:19.133Z,54.38
2022-08-07T17:09:14.284Z,54.44
2022-08-07T17:12:01.940Z,54.17
2022-08-07T17:15:20.317Z,54.71
2022-08-07T17:17:47.924Z,54.26
2022-08-07T17:20:41.999Z,54.14
2022-08-07T17:23:32.417Z,54.48
2022-08-07T17:26:23.253Z,53.76
2022-08-07T17:29:09.694Z,54.13
2022-08-07T17:32:30.463Z,54.17
2022-08-07T17:35:49.748Z,54.45
2022-08-07T17:38:33.621Z,53.99
2022-08-07T17:42:03.551Z,54.11
2022-08-07T17:44:34.037Z,53.87
2022-08-07T17:47:38.025Z,53.77
2022-08-07T17:50:19.482Z,54.41
2022-08-07T17:52:55.365Z,54.57
2022-08-07T17:55:54.765Z,54.50
2022-08-07T17:59:09.067Z,54.33
2022-08-07T18:01:56.706Z,54.10
2022-08-07T18:04:34.873Z,54.74
2022-08-07T18:07:22.672Z,54.42
2022-08-07T18:10:29.033Z,54.87
2022-08-07T18:13:17.699Z,54.50
2022-08-07T18:16:05.205Z,54.92
2022-08-07T18:21:00.754Z,55.03
2022-08-07T18:21:55.183Z,55.43
2022-08-07T18:24:42.432Z,55.24
2022-08-07T18:27:38.392Z,55.45
2022-08-07T18:30:32.490Z,55.42
2022-08-07T18:33:10.572Z,55.13
2022-08-07T18:35:51.642Z,55.45
2022-08-07T18:38:55.035Z,55.50
2022-08-07T18:42:04.133Z,55.28
2022-08-07T18:45:43.854Z,55.60
2022-08-07T18:48:02.538Z,55.84
2022-08-07T18:50:47.558Z,56.56
2022-08-07T18:53:55.392Z,56.16
2022-08-07T18:56:30.647Z,56.61
2022-08-07T18:59:47.609Z,57.46
2022-08-07T19:02:34.169Z,56.62
2022-08-07T19:05:15.919Z,57.04
2022-08-07T19:07:52.883Z,56.75
2022-08-07T19:10:31.881Z,57.33
2022-08-07T19:13:37.232Z,57.27
2022-08-07T19:16:42.874Z,57.04
2022-08-07T19:19:32.739Z,56.86
2022-08-07T19:22:11.191Z,57.21
2022-08-07T19:24:50.227Z,57.33
2022-08-07T19:28:58.666Z,56.82
2022-08-07T19:30:57.842Z,58.02
2022-08-07T19:33:13.239Z,57.67
2022-08-07T19:35:46.731Z,57.17
2022-08-07T19:38:17.818Z,57.12
2022-08-07T19:40:50.590Z,57.07
2022-08-07T19:43:48.581Z,57.46
2022-08-07T19:46:26.864Z,57.46
2022-08-07T19:49:07.470Z,57.26
2022-08-07T19:51:53.232Z,57.25
2022-08-07T19:54:34.343Z,56.80
2022-08-07T19:58:01.299Z,57.48
2022-08-07T20:00:10.417Z,56.93
2022-08-07T20:02:51.517Z,57.71
2022-08-07T20:06:00.365Z,58.04
2022-08-07T20:08:30.484Z,58.10
2022-08-07T20:11:04.027Z,57.89
2022-08-07T20:13:47.673Z,57.83
2022-08-07T20:16:35.200Z,58.09
2022-08-07T20:19:10.905Z,58.51
2022-08-07T20:21:46.842Z,58.24
2022-08-07T20:24:21.226Z,58.74
2022-08-07T20:26:54.580Z,58.32
2022-08-07T20:29:47.751Z,58.26
2022-08-07T20:32:39.673Z,58.57
2022-08-07T20:35:15.901Z,58.98
2022-08-07T20:37:58.819Z,58.93
2022-08-07T20:40:33.305Z,58.73
2022-08-07T20:43:09.397Z,58.83
2022-08-07T20:46:28.620Z,59.51
2022-08-07T20:48:37.283Z,60.29
2022-08-07T20:51:09.263Z,60.10
2022-08-07T20:54:02.834Z,60.63
2022-08-07T20:56:30.733Z,60.08
2022-08-07T20:59:06.084Z,60.94
2022-08-07T21:01:58.120Z,61.43
2022-08-07T21:04:31.986Z,62.61
2022-08-07T21:07:04.039Z,63.39
2022-08-07T21:09:52.515Z,63.30
2022-08-07T21:12:31.746Z,63.96
2022-08-07T21:15:01.224Z,64.66
2022-08-07T21:18:28.104Z,64.70
2022-08-07T21:20:29.612Z,65.94
2022-08-07T21:23:08.071Z,65.86
2022-08-07T21:25:58.440Z,66.46
2022-08-07T21:28:48.805Z,66.60
2022-08-07T21:32:47.114Z,66.67
2022-08-07T21:35:11.205Z,66.89
2022-08-07T21:37:59.155Z,67.14
2022-08-07T21:40:50.322Z,67.81
2022-08-07T21:43:23.441Z,68.30
2022-08-07T21:46:24.746Z,68.12
2022-08-07T21:49:17.860Z,68.05
2022-08-07T21:51:54.828Z,68.76
2022-08-07T21:54:52.310Z,68.13
2022-08-07T21:57:44.888Z,68.66
2022-08-07T22:00:25.026Z,69.50
2022-08-07T22:03:31.224Z,69.99
2022-08-07T22:06:03.982Z,69.92
2022-08-07T22:08:39.399Z,69.98
2022-08-07T22:11:08.517Z,70.29
2022-08-07T22:13:51.882Z,70.77
2022-08-07T22:16:56.157Z,71.17
2022-08-07T22:19:29.929Z,71.02
2022-08-07T22:22:29.914Z,70.70
2022-08-07T22:25:08.153Z,70.70
2022-08-07T22:28:20.215Z,70.74
2022-08-07T22:30:40.468Z,71.14
2022-08-07T22:33:12.553Z,70.83
2022-08-07T22:36:11.967Z,72.27
2022-08-07T22:39:10.410Z,71.87
2022-08-07T22:42:03.797Z,71.88
2022-08-07T22:44:56.947Z,72.04
2022-08-07T22:47:49.407Z,71.58
2022-08-07T22:50:37.984Z,71.65
2022-08-07T22:54:06.480Z,71.72
2022-08-07T22:56:38.999Z,71.50
2022-08-07T22:59:50.852Z,71.47
2022-08-07T23:02:21.694Z,71.67
2022-08-07T23:06:08.981Z,71.43
2022-08-07T23:08:24.548Z,71.86
2022-08-07T23:11:22.547Z,71.55
2022-08-07T23:14:16.039Z,71.63
2022-08-07T23:16:55.336Z,71.94
2022-08-07T23:20:16.826Z,72.18
2022-08-07T23:22:56.919Z,72.05
2022-08-07T23:25:48.535Z,72.49
2022-08-07T23:28:29.152Z,73.05
2022-08-07T23:31:06.512Z,72.63
2022-08-07T23:34:36.359Z,72.90
2022-08-07T23:37:17.700Z,72.50
2022-08-07T23:40:30.091Z,72.12
2022-08-07T23:43:24.953Z,72.01
2022-08-07T23:46:23.523Z,71.88
2022-08-07T23:49:50.211Z,71.97
2022-08-07T23:52:58.832Z,72.14
2022-08-07T23:55:52.354Z,71.94
2022-08-07T23:58:51.675Z,72.10
